sensor_id;sensor_type;location;lat;lon;timestamp;pressure;altitude;pressure_sealevel;temperature;humidity
65131;BME280;51709;54.912;8.316;2023-06-10T00:01:05;102007.69;;;16.28;63.19
65131;BME280;51709;54.912;8.316;2023-06-10T00:06:26;102014.84;;;16.21;63.33
65131;BME280;51709;54.912;8.316;2023-06-10T00:11:47;102004.16;;;16.02;63.29
65131;BME280;51709;54.912;8.316;2023-06-10T00:17:08;102010.53;;;15.77;63.68
65131;BME280;51709;54.912;8.316;2023-06-10T00:22:31;102002.25;;;15.60;63.83
65131;BME280;51709;54.912;8.316;2023-06-10T00:27:52;102008.00;;;15.49;63.90
65131;BME280;51709;54.912;8.316;2023-06-10T00:39:25;102006.44;;;15.29;63.97
65131;BME280;51709;54.912;8.316;2023-06-10T00:44:46;102007.94;;;15.24;63.89
65131;BME280;51709;54.912;8.316;2023-06-10T00:50:07;102016.56;;;15.11;64.17
65131;BME280;51709;54.912;8.316;2023-06-10T00:55:28;102021.84;;;15.05;64.22
65131;BME280;51709;54.912;8.316;2023-06-10T01:00:48;102021.47;;;15.00;64.15
65131;BME280;51709;54.912;8.316;2023-06-10T01:12:07;102024.34;;;14.81;64.48
65131;BME280;51709;54.912;8.316;2023-06-10T01:17:29;102028.88;;;14.72;64.22
65131;BME280;51709;54.912;8.316;2023-06-10T01:22:51;102029.13;;;14.61;64.37
65131;BME280;51709;54.912;8.316;2023-06-10T01:28:37;102018.81;;;14.55;64.27
65131;BME280;51709;54.912;8.316;2023-06-10T01:34:00;102029.66;;;14.47;64.58
65131;BME280;51709;54.912;8.316;2023-06-10T01:39:22;102034.75;;;14.42;64.57
65131;BME280;51709;54.912;8.316;2023-06-10T01:44:44;102037.25;;;14.35;64.30
65131;BME280;51709;54.912;8.316;2023-06-10T01:50:06;102030.50;;;14.30;64.57
65131;BME280;51709;54.912;8.316;2023-06-10T01:55:28;102047.91;;;14.29;64.46
65131;BME280;51709;54.912;8.316;2023-06-10T02:00:49;102036.53;;;14.24;64.49
65131;BME280;51709;54.912;8.316;2023-06-10T02:06:10;102042.44;;;14.19;64.53
65131;BME280;51709;54.912;8.316;2023-06-10T02:11:31;102039.63;;;14.11;64.83
65131;BME280;51709;54.912;8.316;2023-06-10T02:16:51;102051.88;;;14.07;64.90
65131;BME280;51709;54.912;8.316;2023-06-10T02:22:16;102053.75;;;14.07;64.76
65131;BME280;51709;54.912;8.316;2023-06-10T02:27:37;102051.16;;;14.05;65.09
65131;BME280;51709;54.912;8.316;2023-06-10T02:32:58;102053.06;;;14.05;64.76
65131;BME280;51709;54.912;8.316;2023-06-10T02:38:20;102061.09;;;14.06;64.82
65131;BME280;51709;54.912;8.316;2023-06-10T02:44:05;102059.22;;;14.07;65.01
65131;BME280;51709;54.912;8.316;2023-06-10T02:49:26;102054.97;;;14.22;64.68
65131;BME280;51709;54.912;8.316;2023-06-10T02:54:50;102050.75;;;14.37;64.31
65131;BME280;51709;54.912;8.316;2023-06-10T03:00:11;102053.25;;;14.21;64.66
65131;BME280;51709;54.912;8.316;2023-06-10T03:05:35;102055.28;;;14.19;65.07
65131;BME280;51709;54.912;8.316;2023-06-10T03:10:58;102056.72;;;14.23;64.96
65131;BME280;51709;54.912;8.316;2023-06-10T03:16:19;102055.41;;;14.27;65.05
65131;BME280;51709;54.912;8.316;2023-06-10T03:21:49;102051.34;;;14.31;65.28
65131;BME280;51709;54.912;8.316;2023-06-10T03:27:11;102057.94;;;14.38;65.11
65131;BME280;51709;54.912;8.316;2023-06-10T03:32:34;102068.81;;;14.47;65.15
65131;BME280;51709;54.912;8.316;2023-06-10T03:37:58;102064.44;;;14.54;64.86
65131;BME280;51709;54.912;8.316;2023-06-10T03:43:19;102053.44;;;14.64;64.90
65131;BME280;51709;54.912;8.316;2023-06-10T03:48:41;102060.19;;;14.70;65.17
65131;BME280;51709;54.912;8.316;2023-06-10T03:54:03;102061.66;;;14.82;64.86
65131;BME280;51709;54.912;8.316;2023-06-10T03:59:23;102058.97;;;14.90;64.93
65131;BME280;51709;54.912;8.316;2023-06-10T04:04:44;102058.91;;;14.99;64.98
65131;BME280;51709;54.912;8.316;2023-06-10T04:10:07;102052.66;;;15.07;64.77
65131;BME280;51709;54.912;8.316;2023-06-10T04:15:27;102061.09;;;15.13;64.85
65131;BME280;51709;54.912;8.316;2023-06-10T04:20:50;102056.00;;;15.18;64.68
65131;BME280;51709;54.912;8.316;2023-06-10T04:26:11;102073.91;;;15.30;64.34
65131;BME280;51709;54.912;8.316;2023-06-10T04:31:36;102056.53;;;15.39;64.11
65131;BME280;51709;54.912;8.316;2023-06-10T04:36:58;102065.69;;;15.48;64.24
65131;BME280;51709;54.912;8.316;2023-06-10T04:42:18;102064.63;;;15.66;64.10
65131;BME280;51709;54.912;8.316;2023-06-10T04:47:39;102061.81;;;15.84;63.83
65131;BME280;51709;54.912;8.316;2023-06-10T04:53:00;102061.38;;;15.97;63.62
65131;BME280;51709;54.912;8.316;2023-06-10T04:58:22;102068.44;;;16.07;63.30
65131;BME280;51709;54.912;8.316;2023-06-10T05:04:08;102061.63;;;16.19;63.28
65131;BME280;51709;54.912;8.316;2023-06-10T05:09:29;102052.25;;;16.30;62.90
65131;BME280;51709;54.912;8.316;2023-06-10T05:14:49;102052.97;;;16.40;62.76
65131;BME280;51709;54.912;8.316;2023-06-10T05:20:10;102055.75;;;16.48;62.58
65131;BME280;51709;54.912;8.316;2023-06-10T05:25:31;102058.19;;;16.59;62.23
65131;BME280;51709;54.912;8.316;2023-06-10T05:30:52;102059.75;;;16.69;62.05
65131;BME280;51709;54.912;8.316;2023-06-10T05:36:13;102058.44;;;16.82;61.86
65131;BME280;51709;54.912;8.316;2023-06-10T05:41:33;102049.50;;;16.88;61.71
65131;BME280;51709;54.912;8.316;2023-06-10T05:46:54;102050.41;;;16.96;61.44
65131;BME280;51709;54.912;8.316;2023-06-10T05:52:14;102037.69;;;17.03;61.12
65131;BME280;51709;54.912;8.316;2023-06-10T05:57:35;102037.69;;;17.11;61.16
65131;BME280;51709;54.912;8.316;2023-06-10T06:02:56;102049.34;;;17.13;60.90
65131;BME280;51709;54.912;8.316;2023-06-10T06:08:18;102043.50;;;17.40;60.27
65131;BME280;51709;54.912;8.316;2023-06-10T06:13:39;102047.63;;;17.44;60.11
65131;BME280;51709;54.912;8.316;2023-06-10T06:18:59;102045.44;;;17.48;60.11
65131;BME280;51709;54.912;8.316;2023-06-10T06:24:20;102042.31;;;17.59;59.84
65131;BME280;51709;54.912;8.316;2023-06-10T06:29:40;102051.72;;;17.81;59.25
65131;BME280;51709;54.912;8.316;2023-06-10T06:35:02;102056.06;;;18.14;58.98
65131;BME280;51709;54.912;8.316;2023-06-10T06:40:22;102051.81;;;18.50;58.39
65131;BME280;51709;54.912;8.316;2023-06-10T06:45:43;102047.88;;;18.75;58.15
65131;BME280;51709;54.912;8.316;2023-06-10T06:51:03;102050.75;;;19.04;57.59
65131;BME280;51709;54.912;8.316;2023-06-10T06:56:25;102048.66;;;19.29;57.29
65131;BME280;51709;54.912;8.316;2023-06-10T07:01:47;102052.28;;;19.29;57.13
65131;BME280;51709;54.912;8.316;2023-06-10T07:07:08;102047.75;;;19.36;57.00
65131;BME280;51709;54.912;8.316;2023-06-10T07:12:29;102042.56;;;19.56;56.48
65131;BME280;51709;54.912;8.316;2023-06-10T07:17:51;102051.06;;;19.69;56.16
65131;BME280;51709;54.912;8.316;2023-06-10T07:23:11;102052.97;;;19.83;56.00
65131;BME280;51709;54.912;8.316;2023-06-10T07:28:32;102058.03;;;20.09;55.34
65131;BME280;51709;54.912;8.316;2023-06-10T07:33:52;102067.75;;;20.34;54.68
65131;BME280;51709;54.912;8.316;2023-06-10T07:47:09;102057.19;;;21.09;53.63
65131;BME280;51709;54.912;8.316;2023-06-10T07:52:29;102055.66;;;21.27;53.25
65131;BME280;51709;54.912;8.316;2023-06-10T07:57:53;102053.47;;;21.71;52.60
65131;BME280;51709;54.912;8.316;2023-06-10T08:03:14;102053.50;;;21.99;52.23
65131;BME280;51709;54.912;8.316;2023-06-10T08:08:35;102064.53;;;22.27;51.75
65131;BME280;51709;54.912;8.316;2023-06-10T08:14:01;102060.16;;;22.52;51.40
65131;BME280;51709;54.912;8.316;2023-06-10T08:19:21;102060.66;;;22.68;51.20
65131;BME280;51709;54.912;8.316;2023-06-10T08:24:41;102056.06;;;22.95;50.37
65131;BME280;51709;54.912;8.316;2023-06-10T08:30:02;102056.09;;;23.15;50.15
65131;BME280;51709;54.912;8.316;2023-06-10T08:35:23;102058.69;;;23.42;50.07
65131;BME280;51709;54.912;8.316;2023-06-10T08:40:44;102064.69;;;23.72;49.17
65131;BME280;51709;54.912;8.316;2023-06-10T08:46:08;102053.56;;;23.92;48.99
65131;BME280;51709;54.912;8.316;2023-06-10T08:51:30;102056.97;;;24.13;48.67
65131;BME280;51709;54.912;8.316;2023-06-10T08:56:54;102059.50;;;24.15;48.68
65131;BME280;51709;54.912;8.316;2023-06-10T09:02:15;102055.34;;;24.50;48.13
65131;BME280;51709;54.912;8.316;2023-06-10T09:07:40;102053.50;;;24.81;47.61
65131;BME280;51709;54.912;8.316;2023-06-10T09:13:01;102041.03;;;25.22;47.13
65131;BME280;51709;54.912;8.316;2023-06-10T09:18:22;102041.06;;;25.71;46.40
65131;BME280;51709;54.912;8.316;2023-06-10T09:23:42;102041.22;;;26.01;45.65
65131;BME280;51709;54.912;8.316;2023-06-10T09:29:04;102033.56;;;26.32;45.14
65131;BME280;51709;54.912;8.316;2023-06-10T09:34:32;102033.16;;;26.65;44.88
65131;BME280;51709;54.912;8.316;2023-06-10T09:40:03;102021.19;;;26.94;44.22
65131;BME280;51709;54.912;8.316;2023-06-10T09:45:31;102016.72;;;27.34;43.92
65131;BME280;51709;54.912;8.316;2023-06-10T09:50:53;102016.59;;;27.64;43.35
65131;BME280;51709;54.912;8.316;2023-06-10T09:56:13;102015.88;;;27.92;42.99
65131;BME280;51709;54.912;8.316;2023-06-10T10:01:34;102027.25;;;28.36;42.34
65131;BME280;51709;54.912;8.316;2023-06-10T10:06:55;102017.78;;;28.77;41.99
65131;BME280;51709;54.912;8.316;2023-06-10T10:12:16;102018.00;;;29.04;41.46
65131;BME280;51709;54.912;8.316;2023-06-10T10:17:40;102014.50;;;29.41;40.84
65131;BME280;51709;54.912;8.316;2023-06-10T10:23:03;102011.56;;;30.03;40.08
65131;BME280;51709;54.912;8.316;2023-06-10T10:28:29;102010.13;;;30.82;38.76
65131;BME280;51709;54.912;8.316;2023-06-10T10:33:58;102007.03;;;31.36;38.16
65131;BME280;51709;54.912;8.316;2023-06-10T10:39:20;102001.75;;;31.76;37.79
65131;BME280;51709;54.912;8.316;2023-06-10T10:44:42;102003.59;;;31.98;38.03
65131;BME280;51709;54.912;8.316;2023-06-10T10:50:13;102002.34;;;32.30;37.49
65131;BME280;51709;54.912;8.316;2023-06-10T10:55:35;102011.81;;;32.66;37.00
65131;BME280;51709;54.912;8.316;2023-06-10T11:00:56;102008.03;;;33.17;36.66
65131;BME280;51709;54.912;8.316;2023-06-10T11:06:18;101995.63;;;33.33;36.44
65131;BME280;51709;54.912;8.316;2023-06-10T11:11:49;101990.84;;;33.39;35.91
65131;BME280;51709;54.912;8.316;2023-06-10T11:17:18;101991.66;;;33.34;36.32
65131;BME280;51709;54.912;8.316;2023-06-10T11:22:58;102002.09;;;33.44;35.89
65131;BME280;51709;54.912;8.316;2023-06-10T11:28:19;101982.34;;;33.74;35.52
65131;BME280;51709;54.912;8.316;2023-06-10T11:33:41;101988.81;;;33.85;35.49
65131;BME280;51709;54.912;8.316;2023-06-10T11:39:04;101985.94;;;34.10;34.82
65131;BME280;51709;54.912;8.316;2023-06-10T11:44:27;101970.63;;;34.31;34.47
65131;BME280;51709;54.912;8.316;2023-06-10T11:49:57;101979.41;;;34.24;34.50
65131;BME280;51709;54.912;8.316;2023-06-10T11:55:17;101992.19;;;34.07;34.45
65131;BME280;51709;54.912;8.316;2023-06-10T12:00:55;101979.75;;;34.08;34.22
65131;BME280;51709;54.912;8.316;2023-06-10T12:06:19;101970.06;;;34.34;33.74
65131;BME280;51709;54.912;8.316;2023-06-10T12:11:40;101967.72;;;34.51;33.57
65131;BME280;51709;54.912;8.316;2023-06-10T12:17:00;101958.13;;;34.52;33.46
65131;BME280;51709;54.912;8.316;2023-06-10T12:22:21;101962.97;;;34.41;33.41
65131;BME280;51709;54.912;8.316;2023-06-10T12:27:51;101951.91;;;34.55;33.43
65131;BME280;51709;54.912;8.316;2023-06-10T12:33:19;101949.72;;;34.32;33.53
65131;BME280;51709;54.912;8.316;2023-06-10T12:38:39;101951.25;;;34.04;33.66
65131;BME280;51709;54.912;8.316;2023-06-10T12:44:01;101943.94;;;34.03;33.69
65131;BME280;51709;54.912;8.316;2023-06-10T12:49:22;101940.44;;;34.26;33.24
65131;BME280;51709;54.912;8.316;2023-06-10T12:54:43;101957.16;;;34.18;33.74
65131;BME280;51709;54.912;8.316;2023-06-10T13:00:04;101953.75;;;34.16;33.37
65131;BME280;51709;54.912;8.316;2023-06-10T13:05:29;101947.03;;;33.92;33.67
65131;BME280;51709;54.912;8.316;2023-06-10T13:10:50;101940.31;;;33.77;33.76
65131;BME280;51709;54.912;8.316;2023-06-10T13:16:10;101943.72;;;33.74;33.56
65131;BME280;51709;54.912;8.316;2023-06-10T13:21:34;101930.16;;;33.82;33.20
65131;BME280;51709;54.912;8.316;2023-06-10T13:26:57;101926.72;;;33.90;33.16
65131;BME280;51709;54.912;8.316;2023-06-10T13:32:18;101928.44;;;33.80;33.31
65131;BME280;51709;54.912;8.316;2023-06-10T13:37:39;101929.06;;;33.67;33.13
65131;BME280;51709;54.912;8.316;2023-06-10T13:42:59;101914.66;;;33.69;33.06
65131;BME280;51709;54.912;8.316;2023-06-10T13:48:21;101919.78;;;33.57;33.14
65131;BME280;51709;54.912;8.316;2023-06-10T13:53:41;101917.78;;;32.92;33.76
65131;BME280;51709;54.912;8.316;2023-06-10T13:59:03;101901.84;;;32.26;33.98
65131;BME280;51709;54.912;8.316;2023-06-10T14:04:24;101912.13;;;31.90;34.40
65131;BME280;51709;54.912;8.316;2023-06-10T14:09:45;101916.06;;;31.89;34.89
65131;BME280;51709;54.912;8.316;2023-06-10T14:15:06;101902.84;;;31.90;34.75
65131;BME280;51709;54.912;8.316;2023-06-10T14:20:27;101914.94;;;31.95;34.33
65131;BME280;51709;54.912;8.316;2023-06-10T14:25:51;101904.06;;;32.14;34.26
65131;BME280;51709;54.912;8.316;2023-06-10T14:31:12;101908.59;;;32.25;34.28
65131;BME280;51709;54.912;8.316;2023-06-10T14:36:34;101904.06;;;32.14;34.56
65131;BME280;51709;54.912;8.316;2023-06-10T14:41:55;101900.22;;;31.78;35.24
65131;BME280;51709;54.912;8.316;2023-06-10T14:47:16;101888.53;;;33.08;33.81
65131;BME280;51709;54.912;8.316;2023-06-10T14:52:38;101894.19;;;35.05;31.73
65131;BME280;51709;54.912;8.316;2023-06-10T14:57:59;101898.66;;;35.39;31.26
65131;BME280;51709;54.912;8.316;2023-06-10T15:03:20;101903.06;;;34.93;32.16
65131;BME280;51709;54.912;8.316;2023-06-10T15:08:40;101892.53;;;36.69;30.83
65131;BME280;51709;54.912;8.316;2023-06-10T15:14:00;101896.22;;;38.47;29.13
65131;BME280;51709;54.912;8.316;2023-06-10T15:19:21;101889.28;;;41.66;26.80
65131;BME280;51709;54.912;8.316;2023-06-10T15:24:42;101880.94;;;42.69;26.05
65131;BME280;51709;54.912;8.316;2023-06-10T15:30:03;101877.53;;;43.40;25.30
65131;BME280;51709;54.912;8.316;2023-06-10T15:35:25;101890.97;;;43.85;25.26
65131;BME280;51709;54.912;8.316;2023-06-10T15:40:47;101887.53;;;44.27;24.69
65131;BME280;51709;54.912;8.316;2023-06-10T15:46:07;101886.38;;;44.68;24.35
65131;BME280;51709;54.912;8.316;2023-06-10T15:51:28;101879.22;;;44.62;24.29
65131;BME280;51709;54.912;8.316;2023-06-10T15:56:49;101882.00;;;40.53;27.60
65131;BME280;51709;54.912;8.316;2023-06-10T16:02:10;101860.22;;;35.38;32.41
65131;BME280;51709;54.912;8.316;2023-06-10T16:07:32;101867.31;;;32.65;34.35
65131;BME280;51709;54.912;8.316;2023-06-10T16:12:53;101862.50;;;31.27;35.50
65131;BME280;51709;54.912;8.316;2023-06-10T16:18:13;101857.91;;;30.26;36.52
65131;BME280;51709;54.912;8.316;2023-06-10T16:23:35;101852.59;;;29.81;36.38
65131;BME280;51709;54.912;8.316;2023-06-10T16:28:58;101858.28;;;29.48;36.84
65131;BME280;51709;54.912;8.316;2023-06-10T16:34:18;101853.94;;;29.19;37.17
65131;BME280;51709;54.912;8.316;2023-06-10T16:39:38;101853.56;;;28.82;37.48
65131;BME280;51709;54.912;8.316;2023-06-10T16:44:59;101860.94;;;28.55;37.64
65131;BME280;51709;54.912;8.316;2023-06-10T16:50:20;101871.97;;;28.34;38.15
65131;BME280;51709;54.912;8.316;2023-06-10T16:55:40;101876.69;;;28.17;38.12
65131;BME280;51709;54.912;8.316;2023-06-10T17:01:04;101853.63;;;28.10;38.54
65131;BME280;51709;54.912;8.316;2023-06-10T17:06:26;101867.28;;;27.95;38.81
65131;BME280;51709;54.912;8.316;2023-06-10T17:11:46;101873.25;;;27.75;38.74
65131;BME280;51709;54.912;8.316;2023-06-10T17:17:07;101878.38;;;27.55;39.06
65131;BME280;51709;54.912;8.316;2023-06-10T17:22:28;101876.31;;;27.27;39.83
65131;BME280;51709;54.912;8.316;2023-06-10T17:27:48;101869.66;;;27.05;40.40
65131;BME280;51709;54.912;8.316;2023-06-10T17:33:09;101875.06;;;26.77;40.59
65131;BME280;51709;54.912;8.316;2023-06-10T17:38:30;101874.72;;;26.44;41.03
65131;BME280;51709;54.912;8.316;2023-06-10T17:43:51;101882.06;;;26.09;41.68
65131;BME280;51709;54.912;8.316;2023-06-10T17:49:11;101877.31;;;25.79;42.10
65131;BME280;51709;54.912;8.316;2023-06-10T17:54:32;101895.41;;;25.52;42.62
65131;BME280;51709;54.912;8.316;2023-06-10T17:59:52;101892.06;;;25.19;42.82
65131;BME280;51709;54.912;8.316;2023-06-10T18:05:13;101901.69;;;24.99;43.36
65131;BME280;51709;54.912;8.316;2023-06-10T18:10:34;101897.13;;;24.79;43.48
65131;BME280;51709;54.912;8.316;2023-06-10T18:15:55;101903.09;;;24.52;44.09
65131;BME280;51709;54.912;8.316;2023-06-10T18:21:16;101916.69;;;24.29;44.16
65131;BME280;51709;54.912;8.316;2023-06-10T18:26:36;101913.19;;;24.09;44.36
65131;BME280;51709;54.912;8.316;2023-06-10T18:31:56;101914.75;;;23.78;44.79
65131;BME280;51709;54.912;8.316;2023-06-10T18:37:19;101922.97;;;23.41;45.37
65131;BME280;51709;54.912;8.316;2023-06-10T18:42:40;101930.22;;;23.09;45.56
65131;BME280;51709;54.912;8.316;2023-06-10T18:48:00;101924.25;;;22.86;45.72
65131;BME280;51709;54.912;8.316;2023-06-10T18:53:21;101938.94;;;22.67;46.07
65131;BME280;51709;54.912;8.316;2023-06-10T18:58:42;101944.63;;;22.46;46.26
65131;BME280;51709;54.912;8.316;2023-06-10T19:04:06;101947.56;;;22.31;46.28
65131;BME280;51709;54.912;8.316;2023-06-10T19:09:26;101957.75;;;22.18;46.40
65131;BME280;51709;54.912;8.316;2023-06-10T19:14:47;101972.78;;;22.02;46.64
65131;BME280;51709;54.912;8.316;2023-06-10T19:20:08;101979.28;;;21.82;46.36
65131;BME280;51709;54.912;8.316;2023-06-10T19:25:29;101990.66;;;21.65;46.87
65131;BME280;51709;54.912;8.316;2023-06-10T19:30:50;101986.81;;;21.66;46.51
65131;BME280;51709;54.912;8.316;2023-06-10T19:36:11;101987.66;;;21.60;46.71
65131;BME280;51709;54.912;8.316;2023-06-10T19:41:31;101986.28;;;21.50;47.09
65131;BME280;51709;54.912;8.316;2023-06-10T19:46:52;101988.75;;;21.38;47.10
65131;BME280;51709;54.912;8.316;2023-06-10T19:52:12;101991.16;;;21.20;47.27
65131;BME280;51709;54.912;8.316;2023-06-10T19:57:33;101996.75;;;21.06;47.71
65131;BME280;51709;54.912;8.316;2023-06-10T20:02:53;102006.94;;;20.84;47.52
65131;BME280;51709;54.912;8.316;2023-06-10T20:08:14;102003.78;;;20.66;48.04
65131;BME280;51709;54.912;8.316;2023-06-10T20:13:35;102011.63;;;20.48;47.96
65131;BME280;51709;54.912;8.316;2023-06-10T20:18:56;102008.69;;;20.35;48.14
65131;BME280;51709;54.912;8.316;2023-06-10T20:24:17;102005.41;;;20.25;47.93
65131;BME280;51709;54.912;8.316;2023-06-10T20:29:38;102017.03;;;20.06;48.39
65131;BME280;51709;54.912;8.316;2023-06-10T20:34:58;102020.25;;;19.95;48.80
65131;BME280;51709;54.912;8.316;2023-06-10T20:40:19;102019.66;;;19.85;48.94
65131;BME280;51709;54.912;8.316;2023-06-10T20:45:40;102020.81;;;19.75;48.88
65131;BME280;51709;54.912;8.316;2023-06-10T20:51:00;102017.19;;;19.60;49.05
65131;BME280;51709;54.912;8.316;2023-06-10T20:56:21;102026.59;;;19.51;49.08
65131;BME280;51709;54.912;8.316;2023-06-10T21:01:42;102031.69;;;19.40;49.00
65131;BME280;51709;54.912;8.316;2023-06-10T21:07:03;102031.34;;;19.20;49.08
65131;BME280;51709;54.912;8.316;2023-06-10T21:12:24;102050.56;;;19.06;49.39
65131;BME280;51709;54.912;8.316;2023-06-10T21:17:45;102036.59;;;19.07;49.33
65131;BME280;51709;54.912;8.316;2023-06-10T21:23:06;102025.22;;;18.88;49.38
65131;BME280;51709;54.912;8.316;2023-06-10T21:28:27;102043.41;;;18.74;49.52
65131;BME280;51709;54.912;8.316;2023-06-10T21:33:48;102032.81;;;18.63;49.41
65131;BME280;51709;54.912;8.316;2023-06-10T21:39:08;102043.16;;;18.53;49.72
65131;BME280;51709;54.912;8.316;2023-06-10T21:44:29;102035.84;;;18.45;49.93
65131;BME280;51709;54.912;8.316;2023-06-10T21:49:50;102037.72;;;18.37;49.83
65131;BME280;51709;54.912;8.316;2023-06-10T21:55:10;102035.03;;;18.29;49.91
65131;BME280;51709;54.912;8.316;2023-06-10T22:00:31;102031.97;;;18.24;50.08
65131;BME280;51709;54.912;8.316;2023-06-10T22:05:52;102038.34;;;18.16;50.21
65131;BME280;51709;54.912;8.316;2023-06-10T22:11:13;102044.75;;;18.09;50.14
65131;BME280;51709;54.912;8.316;2023-06-10T22:16:33;102052.69;;;18.04;50.37
65131;BME280;51709;54.912;8.316;2023-06-10T22:21:54;102041.69;;;17.96;50.49
65131;BME280;51709;54.912;8.316;2023-06-10T22:27:15;102047.91;;;17.90;50.68
65131;BME280;51709;54.912;8.316;2023-06-10T22:32:35;102043.28;;;17.82;50.66
65131;BME280;51709;54.912;8.316;2023-06-10T22:37:56;102041.59;;;17.73;50.85
65131;BME280;51709;54.912;8.316;2023-06-10T22:43:17;102042.09;;;17.68;50.86
65131;BME280;51709;54.912;8.316;2023-06-10T22:48:38;102043.34;;;17.58;51.18
65131;BME280;51709;54.912;8.316;2023-06-10T22:53:59;102047.59;;;17.68;51.01
65131;BME280;51709;54.912;8.316;2023-06-10T22:59:20;102044.56;;;17.55;51.19
65131;BME280;51709;54.912;8.316;2023-06-10T23:04:41;102055.19;;;17.42;51.42
65131;BME280;51709;54.912;8.316;2023-06-10T23:10:01;102049.69;;;17.34;51.45
65131;BME280;51709;54.912;8.316;2023-06-10T23:15:22;102049.72;;;17.26;51.58
65131;BME280;51709;54.912;8.316;2023-06-10T23:20:43;102053.47;;;17.17;51.56
65131;BME280;51709;54.912;8.316;2023-06-10T23:26:05;102049.69;;;17.18;51.91
65131;BME280;51709;54.912;8.316;2023-06-10T23:31:26;102050.53;;;17.11;52.09
65131;BME280;51709;54.912;8.316;2023-06-10T23:36:46;102059.97;;;17.00;52.25
65131;BME280;51709;54.912;8.316;2023-06-10T23:42:07;102050.72;;;16.93;52.27
65131;BME280;51709;54.912;8.316;2023-06-10T23:47:28;102056.72;;;16.89;52.64
65131;BME280;51709;54.912;8.316;2023-06-10T23:52:48;102056.38;;;16.84;52.54
65131;BME280;51709;54.912;8.316;2023-06-10T23:58:09;102060.50;;;16.80;53.00
